sensor_id;sensor_type;location;lat;lon;timestamp;P1;durP1;ratioP1;P2;durP2;ratioP2
29162;SDS011;20331;53.144;8.208;2024-01-11T00:01:46;57.15;;;29.40;;
29162;SDS011;20331;53.144;8.208;2024-01-11T00:12:29;70.20;;;32.35;;
29162;SDS011;20331;53.144;8.208;2024-01-11T00:17:52;70.03;;;31.70;;
29162;SDS011;20331;53.144;8.208;2024-01-11T00:23:14;72.93;;;32.38;;
29162;SDS011;20331;53.144;8.208;2024-01-11T00:28:36;79.00;;;34.45;;
29162;SDS011;20331;53.144;8.208;2024-01-11T00:33:58;75.70;;;34.55;;
29162;SDS011;20331;53.144;8.208;2024-01-11T00:39:19;85.15;;;35.40;;
29162;SDS011;20331;53.144;8.208;2024-01-11T00:44:41;80.25;;;34.55;;
29162;SDS011;20331;53.144;8.208;2024-01-11T00:50:03;77.57;;;34.13;;
29162;SDS011;20331;53.144;8.208;2024-01-11T00:55:24;72.95;;;32.08;;
29162;SDS011;20331;53.144;8.208;2024-01-11T01:00:46;71.95;;;33.03;;
29162;SDS011;20331;53.144;8.208;2024-01-11T01:06:08;80.57;;;35.80;;
29162;SDS011;20331;53.144;8.208;2024-01-11T01:11:29;83.82;;;35.75;;
29162;SDS011;20331;53.144;8.208;2024-01-11T01:16:51;91.03;;;34.05;;
29162;SDS011;20331;53.144;8.208;2024-01-11T01:22:13;84.18;;;34.85;;
29162;SDS011;20331;53.144;8.208;2024-01-11T01:27:35;82.15;;;35.05;;
29162;SDS011;20331;53.144;8.208;2024-01-11T01:32:56;83.38;;;35.70;;
29162;SDS011;20331;53.144;8.208;2024-01-11T01:38:18;82.47;;;33.53;;
29162;SDS011;20331;53.144;8.208;2024-01-11T01:43:40;83.57;;;34.88;;
29162;SDS011;20331;53.144;8.208;2024-01-11T01:49:01;79.30;;;33.45;;
29162;SDS011;20331;53.144;8.208;2024-01-11T01:54:23;79.65;;;34.47;;
29162;SDS011;20331;53.144;8.208;2024-01-11T01:59:45;81.85;;;35.45;;
29162;SDS011;20331;53.144;8.208;2024-01-11T02:05:12;82.55;;;34.63;;
29162;SDS011;20331;53.144;8.208;2024-01-11T02:10:35;86.50;;;36.42;;
29162;SDS011;20331;53.144;8.208;2024-01-11T02:15:57;83.57;;;36.50;;
29162;SDS011;20331;53.144;8.208;2024-01-11T02:21:19;82.43;;;35.38;;
29162;SDS011;20331;53.144;8.208;2024-01-11T02:26:59;77.47;;;34.50;;
29162;SDS011;20331;53.144;8.208;2024-01-11T02:32:22;80.57;;;35.30;;
29162;SDS011;20331;53.144;8.208;2024-01-11T02:37:44;86.90;;;36.13;;
29162;SDS011;20331;53.144;8.208;2024-01-11T02:43:08;82.65;;;34.53;;
29162;SDS011;20331;53.144;8.208;2024-01-11T02:48:31;81.97;;;33.88;;
29162;SDS011;20331;53.144;8.208;2024-01-11T02:53:53;66.03;;;30.88;;
29162;SDS011;20331;53.144;8.208;2024-01-11T02:59:15;70.55;;;32.50;;
29162;SDS011;20331;53.144;8.208;2024-01-11T03:04:36;70.88;;;31.70;;
29162;SDS011;20331;53.144;8.208;2024-01-11T03:09:58;77.63;;;32.63;;
29162;SDS011;20331;53.144;8.208;2024-01-11T03:15:20;67.53;;;30.67;;
29162;SDS011;20331;53.144;8.208;2024-01-11T03:20:41;72.28;;;31.73;;
29162;SDS011;20331;53.144;8.208;2024-01-11T03:26:03;78.03;;;34.15;;
29162;SDS011;20331;53.144;8.208;2024-01-11T03:31:24;81.13;;;34.17;;
29162;SDS011;20331;53.144;8.208;2024-01-11T03:36:46;78.88;;;34.92;;
29162;SDS011;20331;53.144;8.208;2024-01-11T03:42:08;76.97;;;33.20;;
29162;SDS011;20331;53.144;8.208;2024-01-11T03:47:29;73.75;;;32.33;;
29162;SDS011;20331;53.144;8.208;2024-01-11T03:52:51;79.28;;;33.70;;
29162;SDS011;20331;53.144;8.208;2024-01-11T03:58:13;79.13;;;33.63;;
29162;SDS011;20331;53.144;8.208;2024-01-11T04:03:35;79.82;;;33.90;;
29162;SDS011;20331;53.144;8.208;2024-01-11T04:08:58;79.85;;;33.72;;
29162;SDS011;20331;53.144;8.208;2024-01-11T04:14:19;80.43;;;33.50;;
29162;SDS011;20331;53.144;8.208;2024-01-11T04:19:41;92.95;;;33.88;;
29162;SDS011;20331;53.144;8.208;2024-01-11T04:25:03;83.60;;;33.45;;
29162;SDS011;20331;53.144;8.208;2024-01-11T04:30:25;81.47;;;35.33;;
29162;SDS011;20331;53.144;8.208;2024-01-11T04:35:47;86.93;;;33.35;;
29162;SDS011;20331;53.144;8.208;2024-01-11T04:41:09;83.10;;;34.50;;
29162;SDS011;20331;53.144;8.208;2024-01-11T04:46:31;88.28;;;33.72;;
29162;SDS011;20331;53.144;8.208;2024-01-11T04:51:52;87.40;;;34.00;;
29162;SDS011;20331;53.144;8.208;2024-01-11T04:57:14;90.22;;;35.60;;
29162;SDS011;20331;53.144;8.208;2024-01-11T05:02:35;80.95;;;32.72;;
29162;SDS011;20331;53.144;8.208;2024-01-11T05:07:57;88.57;;;33.97;;
29162;SDS011;20331;53.144;8.208;2024-01-11T05:13:19;91.85;;;34.10;;
29162;SDS011;20331;53.144;8.208;2024-01-11T05:18:41;80.75;;;34.42;;
29162;SDS011;20331;53.144;8.208;2024-01-11T05:24:02;83.18;;;34.58;;
29162;SDS011;20331;53.144;8.208;2024-01-11T05:29:24;99.80;;;37.13;;
29162;SDS011;20331;53.144;8.208;2024-01-11T05:34:46;94.10;;;34.28;;
29162;SDS011;20331;53.144;8.208;2024-01-11T05:40:08;99.00;;;36.50;;
29162;SDS011;20331;53.144;8.208;2024-01-11T05:45:29;94.68;;;37.50;;
29162;SDS011;20331;53.144;8.208;2024-01-11T05:51:08;97.55;;;36.95;;
29162;SDS011;20331;53.144;8.208;2024-01-11T05:56:30;100.95;;;38.90;;
29162;SDS011;20331;53.144;8.208;2024-01-11T06:01:52;107.32;;;39.60;;
29162;SDS011;20331;53.144;8.208;2024-01-11T06:07:14;102.63;;;38.28;;
29162;SDS011;20331;53.144;8.208;2024-01-11T06:12:36;114.05;;;38.80;;
29162;SDS011;20331;53.144;8.208;2024-01-11T06:18:01;105.43;;;37.78;;
29162;SDS011;20331;53.144;8.208;2024-01-11T06:23:24;109.18;;;39.42;;
29162;SDS011;20331;53.144;8.208;2024-01-11T06:28:46;106.45;;;36.88;;
29162;SDS011;20331;53.144;8.208;2024-01-11T06:34:08;119.60;;;40.53;;
29162;SDS011;20331;53.144;8.208;2024-01-11T06:39:30;105.10;;;37.92;;
29162;SDS011;20331;53.144;8.208;2024-01-11T06:44:52;99.20;;;38.42;;
29162;SDS011;20331;53.144;8.208;2024-01-11T06:50:13;109.13;;;39.08;;
29162;SDS011;20331;53.144;8.208;2024-01-11T06:55:35;136.65;;;49.45;;
29162;SDS011;20331;53.144;8.208;2024-01-11T07:00:57;112.32;;;40.78;;
29162;SDS011;20331;53.144;8.208;2024-01-11T07:06:19;107.68;;;38.85;;
29162;SDS011;20331;53.144;8.208;2024-01-11T07:11:41;110.68;;;39.67;;
29162;SDS011;20331;53.144;8.208;2024-01-11T07:17:03;121.13;;;40.63;;
29162;SDS011;20331;53.144;8.208;2024-01-11T07:22:25;106.15;;;39.85;;
29162;SDS011;20331;53.144;8.208;2024-01-11T07:27:47;120.18;;;40.47;;
29162;SDS011;20331;53.144;8.208;2024-01-11T07:33:08;110.95;;;38.83;;
29162;SDS011;20331;53.144;8.208;2024-01-11T07:38:31;115.32;;;38.65;;
29162;SDS011;20331;53.144;8.208;2024-01-11T07:43:53;118.65;;;40.75;;
29162;SDS011;20331;53.144;8.208;2024-01-11T07:49:19;116.68;;;39.95;;
29162;SDS011;20331;53.144;8.208;2024-01-11T07:54:42;115.57;;;38.55;;
29162;SDS011;20331;53.144;8.208;2024-01-11T08:00:04;107.40;;;38.40;;
29162;SDS011;20331;53.144;8.208;2024-01-11T08:05:28;116.78;;;40.25;;
29162;SDS011;20331;53.144;8.208;2024-01-11T08:10:50;119.72;;;42.65;;
29162;SDS011;20331;53.144;8.208;2024-01-11T08:16:18;108.57;;;37.17;;
29162;SDS011;20331;53.144;8.208;2024-01-11T08:21:40;111.10;;;38.05;;
29162;SDS011;20331;53.144;8.208;2024-01-11T08:27:02;111.22;;;41.40;;
29162;SDS011;20331;53.144;8.208;2024-01-11T08:32:25;109.13;;;39.35;;
29162;SDS011;20331;53.144;8.208;2024-01-11T08:37:52;105.05;;;35.80;;
29162;SDS011;20331;53.144;8.208;2024-01-11T08:43:14;96.28;;;36.38;;
29162;SDS011;20331;53.144;8.208;2024-01-11T08:48:35;103.53;;;35.63;;
29162;SDS011;20331;53.144;8.208;2024-01-11T08:53:58;95.07;;;34.75;;
29162;SDS011;20331;53.144;8.208;2024-01-11T08:59:19;89.47;;;34.67;;
29162;SDS011;20331;53.144;8.208;2024-01-11T09:04:41;94.63;;;33.67;;
29162;SDS011;20331;53.144;8.208;2024-01-11T09:10:03;91.03;;;32.28;;
29162;SDS011;20331;53.144;8.208;2024-01-11T09:15:25;89.55;;;34.63;;
29162;SDS011;20331;53.144;8.208;2024-01-11T09:20:47;96.60;;;34.35;;
29162;SDS011;20331;53.144;8.208;2024-01-11T09:26:08;104.30;;;38.15;;
29162;SDS011;20331;53.144;8.208;2024-01-11T09:31:30;89.53;;;34.78;;
29162;SDS011;20331;53.144;8.208;2024-01-11T09:36:52;94.35;;;34.90;;
29162;SDS011;20331;53.144;8.208;2024-01-11T09:42:14;101.57;;;35.97;;
29162;SDS011;20331;53.144;8.208;2024-01-11T09:47:36;101.65;;;37.42;;
29162;SDS011;20331;53.144;8.208;2024-01-11T09:52:58;90.72;;;35.08;;
29162;SDS011;20331;53.144;8.208;2024-01-11T09:58:25;108.97;;;36.05;;
29162;SDS011;20331;53.144;8.208;2024-01-11T10:03:47;102.70;;;37.70;;
29162;SDS011;20331;53.144;8.208;2024-01-11T10:09:09;100.10;;;36.80;;
29162;SDS011;20331;53.144;8.208;2024-01-11T10:14:31;117.78;;;41.17;;
29162;SDS011;20331;53.144;8.208;2024-01-11T10:19:53;92.50;;;34.50;;
29162;SDS011;20331;53.144;8.208;2024-01-11T10:25:16;104.60;;;36.08;;
29162;SDS011;20331;53.144;8.208;2024-01-11T10:30:39;93.00;;;35.85;;
29162;SDS011;20331;53.144;8.208;2024-01-11T10:36:00;86.45;;;34.63;;
29162;SDS011;20331;53.144;8.208;2024-01-11T10:41:22;85.82;;;33.50;;
29162;SDS011;20331;53.144;8.208;2024-01-11T10:46:45;97.82;;;34.72;;
29162;SDS011;20331;53.144;8.208;2024-01-11T10:52:08;90.28;;;35.83;;
29162;SDS011;20331;53.144;8.208;2024-01-11T10:57:33;83.90;;;30.95;;
29162;SDS011;20331;53.144;8.208;2024-01-11T11:02:55;93.05;;;33.55;;
29162;SDS011;20331;53.144;8.208;2024-01-11T11:08:19;89.90;;;32.50;;
29162;SDS011;20331;53.144;8.208;2024-01-11T11:13:41;81.78;;;32.08;;
29162;SDS011;20331;53.144;8.208;2024-01-11T11:19:04;85.22;;;31.60;;
29162;SDS011;20331;53.144;8.208;2024-01-11T11:24:26;81.90;;;31.23;;
29162;SDS011;20331;53.144;8.208;2024-01-11T11:29:47;73.97;;;30.58;;
29162;SDS011;20331;53.144;8.208;2024-01-11T11:35:10;95.65;;;35.28;;
29162;SDS011;20331;53.144;8.208;2024-01-11T11:40:33;67.78;;;27.48;;
29162;SDS011;20331;53.144;8.208;2024-01-11T11:46:00;81.00;;;29.85;;
29162;SDS011;20331;53.144;8.208;2024-01-11T11:51:28;93.78;;;34.80;;
29162;SDS011;20331;53.144;8.208;2024-01-11T11:56:50;84.75;;;35.47;;
29162;SDS011;20331;53.144;8.208;2024-01-11T12:02:15;102.22;;;38.22;;
29162;SDS011;20331;53.144;8.208;2024-01-11T12:07:39;80.10;;;32.20;;
29162;SDS011;20331;53.144;8.208;2024-01-11T12:13:01;70.97;;;27.48;;
29162;SDS011;20331;53.144;8.208;2024-01-11T12:18:23;63.92;;;27.25;;
29162;SDS011;20331;53.144;8.208;2024-01-11T12:23:45;61.65;;;28.48;;
29162;SDS011;20331;53.144;8.208;2024-01-11T12:29:07;63.25;;;26.77;;
29162;SDS011;20331;53.144;8.208;2024-01-11T12:34:30;68.10;;;28.00;;
29162;SDS011;20331;53.144;8.208;2024-01-11T12:39:57;61.67;;;27.75;;
29162;SDS011;20331;53.144;8.208;2024-01-11T12:45:20;63.70;;;26.33;;
29162;SDS011;20331;53.144;8.208;2024-01-11T12:50:43;56.13;;;23.63;;
29162;SDS011;20331;53.144;8.208;2024-01-11T12:56:06;53.13;;;22.80;;
29162;SDS011;20331;53.144;8.208;2024-01-11T13:01:32;53.38;;;24.13;;
29162;SDS011;20331;53.144;8.208;2024-01-11T13:06:54;51.40;;;22.98;;
29162;SDS011;20331;53.144;8.208;2024-01-11T13:12:17;50.55;;;24.35;;
29162;SDS011;20331;53.144;8.208;2024-01-11T13:17:38;54.17;;;23.08;;
29162;SDS011;20331;53.144;8.208;2024-01-11T13:28:39;52.78;;;23.88;;
29162;SDS011;20331;53.144;8.208;2024-01-11T13:34:01;83.43;;;36.67;;
29162;SDS011;20331;53.144;8.208;2024-01-11T13:39:25;67.55;;;31.23;;
29162;SDS011;20331;53.144;8.208;2024-01-11T13:44:46;66.50;;;31.55;;
29162;SDS011;20331;53.144;8.208;2024-01-11T13:50:08;64.82;;;30.98;;
29162;SDS011;20331;53.144;8.208;2024-01-11T13:55:30;53.42;;;25.80;;
29162;SDS011;20331;53.144;8.208;2024-01-11T14:01:00;58.35;;;26.98;;
29162;SDS011;20331;53.144;8.208;2024-01-11T14:06:21;59.13;;;25.75;;
29162;SDS011;20331;53.144;8.208;2024-01-11T14:11:43;57.15;;;26.10;;
29162;SDS011;20331;53.144;8.208;2024-01-11T14:17:06;51.25;;;22.98;;
29162;SDS011;20331;53.144;8.208;2024-01-11T14:22:28;56.63;;;23.50;;
29162;SDS011;20331;53.144;8.208;2024-01-11T14:27:50;50.40;;;23.42;;
29162;SDS011;20331;53.144;8.208;2024-01-11T14:33:11;49.38;;;22.80;;
29162;SDS011;20331;53.144;8.208;2024-01-11T14:38:33;53.85;;;23.70;;
29162;SDS011;20331;53.144;8.208;2024-01-11T14:43:55;52.75;;;24.55;;
29162;SDS011;20331;53.144;8.208;2024-01-11T14:49:21;54.67;;;23.45;;
29162;SDS011;20331;53.144;8.208;2024-01-11T14:54:43;54.22;;;23.15;;
29162;SDS011;20331;53.144;8.208;2024-01-11T15:00:05;54.42;;;23.48;;
29162;SDS011;20331;53.144;8.208;2024-01-11T15:05:29;59.17;;;25.48;;
29162;SDS011;20331;53.144;8.208;2024-01-11T15:10:53;54.45;;;24.92;;
29162;SDS011;20331;53.144;8.208;2024-01-11T15:16:14;59.53;;;24.80;;
29162;SDS011;20331;53.144;8.208;2024-01-11T15:21:36;63.13;;;27.35;;
29162;SDS011;20331;53.144;8.208;2024-01-11T15:27:02;57.70;;;26.45;;
29162;SDS011;20331;53.144;8.208;2024-01-11T15:32:24;59.53;;;27.33;;
29162;SDS011;20331;53.144;8.208;2024-01-11T15:37:46;63.20;;;26.33;;
29162;SDS011;20331;53.144;8.208;2024-01-11T15:43:08;65.25;;;26.73;;
29162;SDS011;20331;53.144;8.208;2024-01-11T15:48:29;66.03;;;28.15;;
29162;SDS011;20331;53.144;8.208;2024-01-11T15:53:51;63.15;;;28.35;;
29162;SDS011;20331;53.144;8.208;2024-01-11T15:59:13;63.33;;;28.58;;
29162;SDS011;20331;53.144;8.208;2024-01-11T16:04:35;62.85;;;28.17;;
29162;SDS011;20331;53.144;8.208;2024-01-11T16:09:57;77.35;;;29.25;;
29162;SDS011;20331;53.144;8.208;2024-01-11T16:15:19;70.05;;;28.60;;
29162;SDS011;20331;53.144;8.208;2024-01-11T16:20:42;72.72;;;29.95;;
29162;SDS011;20331;53.144;8.208;2024-01-11T16:26:05;71.95;;;29.80;;
29162;SDS011;20331;53.144;8.208;2024-01-11T16:31:27;71.40;;;29.48;;
29162;SDS011;20331;53.144;8.208;2024-01-11T16:36:50;71.45;;;29.83;;
29162;SDS011;20331;53.144;8.208;2024-01-11T16:42:12;69.43;;;29.00;;
29162;SDS011;20331;53.144;8.208;2024-01-11T16:47:34;82.85;;;32.35;;
29162;SDS011;20331;53.144;8.208;2024-01-11T16:52:58;72.10;;;30.52;;
29162;SDS011;20331;53.144;8.208;2024-01-11T16:58:19;73.35;;;31.95;;
29162;SDS011;20331;53.144;8.208;2024-01-11T17:03:41;79.20;;;32.03;;
29162;SDS011;20331;53.144;8.208;2024-01-11T17:09:03;71.80;;;29.95;;
29162;SDS011;20331;53.144;8.208;2024-01-11T17:14:25;81.85;;;32.42;;
29162;SDS011;20331;53.144;8.208;2024-01-11T17:19:47;75.25;;;31.83;;
29162;SDS011;20331;53.144;8.208;2024-01-11T17:25:10;78.85;;;32.10;;
29162;SDS011;20331;53.144;8.208;2024-01-11T17:30:31;91.28;;;36.83;;
29162;SDS011;20331;53.144;8.208;2024-01-11T17:35:53;86.93;;;33.67;;
29162;SDS011;20331;53.144;8.208;2024-01-11T17:41:15;86.25;;;36.67;;
29162;SDS011;20331;53.144;8.208;2024-01-11T17:46:36;97.20;;;37.58;;
29162;SDS011;20331;53.144;8.208;2024-01-11T17:51:59;99.97;;;42.53;;
29162;SDS011;20331;53.144;8.208;2024-01-11T17:57:21;105.50;;;39.28;;
29162;SDS011;20331;53.144;8.208;2024-01-11T18:02:45;121.70;;;47.97;;
29162;SDS011;20331;53.144;8.208;2024-01-11T18:08:07;117.13;;;43.85;;
29162;SDS011;20331;53.144;8.208;2024-01-11T18:13:29;105.18;;;43.95;;
29162;SDS011;20331;53.144;8.208;2024-01-11T18:18:51;100.40;;;40.13;;
29162;SDS011;20331;53.144;8.208;2024-01-11T18:24:13;92.78;;;40.40;;
29162;SDS011;20331;53.144;8.208;2024-01-11T18:29:35;95.00;;;38.92;;
29162;SDS011;20331;53.144;8.208;2024-01-11T18:34:57;97.70;;;37.90;;
29162;SDS011;20331;53.144;8.208;2024-01-11T18:40:19;88.60;;;37.45;;
29162;SDS011;20331;53.144;8.208;2024-01-11T18:45:43;83.22;;;34.42;;
29162;SDS011;20331;53.144;8.208;2024-01-11T18:51:06;109.40;;;41.03;;
29162;SDS011;20331;53.144;8.208;2024-01-11T18:56:28;130.40;;;48.83;;
29162;SDS011;20331;53.144;8.208;2024-01-11T19:01:50;113.05;;;49.72;;
29162;SDS011;20331;53.144;8.208;2024-01-11T19:07:11;113.38;;;41.33;;
29162;SDS011;20331;53.144;8.208;2024-01-11T19:12:33;94.32;;;37.97;;
29162;SDS011;20331;53.144;8.208;2024-01-11T19:17:55;107.88;;;42.78;;
29162;SDS011;20331;53.144;8.208;2024-01-11T19:23:17;191.52;;;53.88;;
29162;SDS011;20331;53.144;8.208;2024-01-11T19:28:38;217.52;;;41.70;;
29162;SDS011;20331;53.144;8.208;2024-01-11T19:34:00;482.08;;;48.70;;
29162;SDS011;20331;53.144;8.208;2024-01-11T19:39:22;555.70;;;63.25;;
29162;SDS011;20331;53.144;8.208;2024-01-11T19:44:43;482.17;;;62.85;;
29162;SDS011;20331;53.144;8.208;2024-01-11T19:50:05;705.53;;;56.13;;
29162;SDS011;20331;53.144;8.208;2024-01-11T19:55:30;614.88;;;57.55;;
29162;SDS011;20331;53.144;8.208;2024-01-11T20:00:51;735.30;;;63.67;;
29162;SDS011;20331;53.144;8.208;2024-01-11T20:06:13;643.50;;;49.55;;
29162;SDS011;20331;53.144;8.208;2024-01-11T20:11:35;491.73;;;49.70;;
29162;SDS011;20331;53.144;8.208;2024-01-11T20:16:57;483.38;;;68.10;;
29162;SDS011;20331;53.144;8.208;2024-01-11T20:22:18;601.13;;;69.97;;
29162;SDS011;20331;53.144;8.208;2024-01-11T20:27:40;581.17;;;44.08;;
29162;SDS011;20331;53.144;8.208;2024-01-11T20:33:02;659.78;;;97.40;;
29162;SDS011;20331;53.144;8.208;2024-01-11T20:38:25;470.80;;;55.85;;
29162;SDS011;20331;53.144;8.208;2024-01-11T20:43:48;470.48;;;69.07;;
29162;SDS011;20331;53.144;8.208;2024-01-11T20:49:10;279.50;;;46.38;;
29162;SDS011;20331;53.144;8.208;2024-01-11T20:54:32;228.85;;;38.85;;
29162;SDS011;20331;53.144;8.208;2024-01-11T20:59:53;272.17;;;43.58;;
29162;SDS011;20331;53.144;8.208;2024-01-11T21:05:15;312.00;;;41.75;;
29162;SDS011;20331;53.144;8.208;2024-01-11T21:10:37;262.67;;;35.65;;
29162;SDS011;20331;53.144;8.208;2024-01-11T21:15:58;280.13;;;47.70;;
29162;SDS011;20331;53.144;8.208;2024-01-11T21:21:20;351.08;;;69.10;;
29162;SDS011;20331;53.144;8.208;2024-01-11T21:26:45;228.68;;;49.97;;
29162;SDS011;20331;53.144;8.208;2024-01-11T21:32:08;290.67;;;46.63;;
29162;SDS011;20331;53.144;8.208;2024-01-11T21:37:30;161.15;;;41.70;;
29162;SDS011;20331;53.144;8.208;2024-01-11T21:42:52;271.05;;;44.50;;
29162;SDS011;20331;53.144;8.208;2024-01-11T21:48:13;162.88;;;34.13;;
29162;SDS011;20331;53.144;8.208;2024-01-11T21:53:35;217.80;;;46.03;;
29162;SDS011;20331;53.144;8.208;2024-01-11T21:58:57;283.98;;;47.70;;
29162;SDS011;20331;53.144;8.208;2024-01-11T22:04:19;281.58;;;55.47;;
29162;SDS011;20331;53.144;8.208;2024-01-11T22:09:40;266.23;;;32.90;;
29162;SDS011;20331;53.144;8.208;2024-01-11T22:15:03;298.13;;;32.33;;
29162;SDS011;20331;53.144;8.208;2024-01-11T22:20:29;328.35;;;40.80;;
29162;SDS011;20331;53.144;8.208;2024-01-11T22:25:53;335.38;;;37.75;;
29162;SDS011;20331;53.144;8.208;2024-01-11T22:31:14;293.20;;;30.65;;
29162;SDS011;20331;53.144;8.208;2024-01-11T22:36:38;255.38;;;29.38;;
29162;SDS011;20331;53.144;8.208;2024-01-11T22:42:00;271.02;;;30.42;;
29162;SDS011;20331;53.144;8.208;2024-01-11T22:47:25;135.60;;;26.33;;
29162;SDS011;20331;53.144;8.208;2024-01-11T22:52:46;180.55;;;27.88;;
29162;SDS011;20331;53.144;8.208;2024-01-11T22:58:08;239.20;;;28.20;;
29162;SDS011;20331;53.144;8.208;2024-01-11T23:03:30;249.32;;;25.52;;
29162;SDS011;20331;53.144;8.208;2024-01-11T23:08:51;230.85;;;24.73;;
29162;SDS011;20331;53.144;8.208;2024-01-11T23:14:13;172.50;;;23.42;;
29162;SDS011;20331;53.144;8.208;2024-01-11T23:19:35;170.13;;;24.27;;
29162;SDS011;20331;53.144;8.208;2024-01-11T23:24:57;152.50;;;22.95;;
29162;SDS011;20331;53.144;8.208;2024-01-11T23:30:18;200.85;;;24.40;;
29162;SDS011;20331;53.144;8.208;2024-01-11T23:35:40;214.45;;;24.02;;
29162;SDS011;20331;53.144;8.208;2024-01-11T23:41:02;219.20;;;22.08;;
29162;SDS011;20331;53.144;8.208;2024-01-11T23:46:23;152.20;;;23.83;;
29162;SDS011;20331;53.144;8.208;2024-01-11T23:51:45;126.53;;;23.35;;
29162;SDS011;20331;53.144;8.208;2024-01-11T23:57:07;161.95;;;21.42;;
